createdAt,value
2023-01-26T00:00:23.368Z,999.73
2023-01-26T00:01:23.445Z,999.77
2023-01-26T00:02:23.129Z,999.72
2023-01-26T00:03:23.485Z,999.68
2023-01-26T00:04:22.879Z,999.68
2023-01-26T00:05:23.630Z,999.67
2023-01-26T00:06:23.037Z,999.70
2023-01-26T00:07:22.841Z,999.63
2023-01-26T00:08:23.317Z,999.68
2023-01-26T00:09:22.848Z,999.61
2023-01-26T00:10:23.736Z,999.68
2023-01-26T00:11:22.869Z,999.65
2023-01-26T00:12:22.766Z,999.67
2023-01-26T00:13:23.002Z,999.70
2023-01-26T00:14:23.592Z,999.68
2023-01-26T00:15:23.278Z,999.68
2023-01-26T00:16:23.665Z,999.63
2023-01-26T00:17:23.390Z,999.66
2023-01-26T00:18:23.456Z,999.63
2023-01-26T00:19:23.574Z,999.64
2023-01-26T00:20:23.532Z,999.57
2023-01-26T00:21:22.843Z,999.58
2023-01-26T00:22:22.775Z,999.58
2023-01-26T00:23:22.651Z,999.56
2023-01-26T00:24:22.723Z,999.56
2023-01-26T00:25:22.738Z,999.51
2023-01-26T00:26:22.777Z,999.49
2023-01-26T00:27:22.866Z,999.42
2023-01-26T00:28:22.622Z,999.43
2023-01-26T00:29:22.692Z,999.41
2023-01-26T00:30:23.084Z,999.43
2023-01-26T00:31:23.142Z,999.42
2023-01-26T00:32:23.177Z,999.41
2023-01-26T00:33:22.502Z,999.34
2023-01-26T00:34:22.547Z,999.39
2023-01-26T00:35:22.562Z,999.37
2023-01-26T00:36:23.306Z,999.35
2023-01-26T00:37:22.482Z,999.37
2023-01-26T00:38:22.460Z,999.35
2023-01-26T00:39:22.482Z,999.36
2023-01-26T00:40:22.472Z,999.37
2023-01-26T00:41:22.474Z,999.36
2023-01-26T00:42:22.531Z,999.35
2023-01-26T00:43:22.502Z,999.35
2023-01-26T00:44:22.563Z,999.37
2023-01-26T00:45:22.478Z,999.35
2023-01-26T00:46:22.509Z,999.39
2023-01-26T00:47:22.332Z,999.35
2023-01-26T00:48:24.531Z,999.34
2023-01-26T00:49:22.489Z,999.33
2023-01-26T00:50:22.350Z,999.37
2023-01-26T00:51:22.396Z,999.38
2023-01-26T00:52:22.278Z,999.32
2023-01-26T00:53:22.317Z,999.29
2023-01-26T00:54:22.356Z,999.34
2023-01-26T00:55:22.229Z,999.29
2023-01-26T00:56:22.578Z,999.29
2023-01-26T00:57:22.189Z,999.27
2023-01-26T00:58:22.483Z,999.28
2023-01-26T00:59:22.331Z,999.29
2023-01-26T01:00:22.427Z,999.28
2023-01-26T01:01:22.519Z,999.27
2023-01-26T01:02:22.298Z,999.26
2023-01-26T01:03:22.095Z,999.29
2023-01-26T01:04:22.296Z,999.25
2023-01-26T01:05:22.092Z,999.29
2023-01-26T01:06:22.324Z,999.23
2023-01-26T01:07:22.467Z,999.20
2023-01-26T01:08:22.474Z,999.23
2023-01-26T01:09:22.563Z,999.21
2023-01-26T01:10:22.474Z,999.26
2023-01-26T01:11:22.995Z,999.16
2023-01-26T01:12:22.472Z,999.23
2023-01-26T01:13:21.975Z,999.22
2023-01-26T01:14:21.990Z,999.24
2023-01-26T01:15:21.955Z,999.26
2023-01-26T01:16:22.523Z,999.28
2023-01-26T01:17:22.124Z,999.22
2023-01-26T01:18:22.509Z,999.27
2023-01-26T01:19:21.915Z,999.24
2023-01-26T01:20:22.495Z,999.24
2023-01-26T01:21:21.941Z,999.24
2023-01-26T01:22:21.943Z,999.23
2023-01-26T01:23:21.995Z,999.23
2023-01-26T01:24:21.874Z,999.24
2023-01-26T01:25:21.830Z,999.22
2023-01-26T01:26:21.828Z,999.19
2023-01-26T01:27:21.852Z,999.13
2023-01-26T01:28:21.803Z,999.11
2023-01-26T01:29:21.827Z,999.07
2023-01-26T01:30:22.309Z,999.06
2023-01-26T01:31:22.462Z,999.06
2023-01-26T01:32:21.763Z,999.02
2023-01-26T01:33:21.740Z,998.98
2023-01-26T01:34:21.709Z,999.02
2023-01-26T01:35:21.698Z,999.03
2023-01-26T01:36:21.700Z,998.98
2023-01-26T01:37:22.564Z,998.98
2023-01-26T01:38:22.439Z,999.01
2023-01-26T01:39:21.836Z,999.01
2023-01-26T01:40:22.299Z,999.01
2023-01-26T01:41:21.627Z,998.99
2023-01-26T01:42:21.656Z,999.00
2023-01-26T01:43:21.610Z,999.00
2023-01-26T01:44:21.650Z,998.95
2023-01-26T01:45:21.699Z,998.96
2023-01-26T01:46:22.447Z,998.94
2023-01-26T01:47:21.569Z,998.97
2023-01-26T01:48:21.597Z,998.99
2023-01-26T01:49:21.576Z,999.01
2023-01-26T01:50:21.535Z,999.01
2023-01-26T01:51:21.610Z,999.04
2023-01-26T01:52:21.716Z,998.99
2023-01-26T01:53:21.677Z,999.02
2023-01-26T01:54:21.737Z,999.03
2023-01-26T01:55:21.785Z,999.01
2023-01-26T01:56:21.874Z,998.95
2023-01-26T01:57:21.835Z,998.92
2023-01-26T01:58:21.847Z,998.91
2023-01-26T01:59:21.440Z,998.90
2023-01-26T02:00:21.449Z,998.88
2023-01-26T02:01:21.367Z,998.90
2023-01-26T02:02:22.073Z,998.87
2023-01-26T02:03:21.405Z,998.89
2023-01-26T02:04:21.348Z,998.80
2023-01-26T02:05:21.347Z,998.81
2023-01-26T02:06:21.319Z,998.81
2023-01-26T02:07:21.850Z,998.80
2023-01-26T02:08:22.025Z,998.81
2023-01-26T02:09:22.026Z,998.78
2023-01-26T02:10:22.184Z,998.78
2023-01-26T02:11:22.087Z,998.74
2023-01-26T02:12:21.347Z,998.73
2023-01-26T02:13:21.252Z,998.78
2023-01-26T02:14:21.284Z,998.76
2023-01-26T02:15:21.346Z,998.74
2023-01-26T02:16:21.387Z,998.74
2023-01-26T02:17:21.461Z,998.73
2023-01-26T02:18:21.204Z,998.74
2023-01-26T02:19:21.140Z,998.77
2023-01-26T02:20:21.165Z,998.74
2023-01-26T02:21:21.200Z,998.73
2023-01-26T02:22:21.318Z,998.75
2023-01-26T02:23:21.498Z,998.69
2023-01-26T02:24:21.354Z,998.72
2023-01-26T02:25:21.062Z,998.67
2023-01-26T02:26:21.359Z,998.68
2023-01-26T02:27:21.080Z,998.64
2023-01-26T02:28:21.721Z,998.61
2023-01-26T02:29:21.798Z,998.64
2023-01-26T02:30:21.799Z,998.58
2023-01-26T02:31:21.280Z,998.60
2023-01-26T02:32:21.229Z,998.56
2023-01-26T02:33:21.777Z,998.51
2023-01-26T02:34:20.954Z,998.53
2023-01-26T02:35:21.298Z,998.48
2023-01-26T02:36:21.731Z,998.51
2023-01-26T02:37:21.500Z,998.51
2023-01-26T02:38:21.809Z,998.52
2023-01-26T02:39:20.907Z,998.51
2023-01-26T02:40:21.017Z,998.49
2023-01-26T02:41:20.869Z,998.54
2023-01-26T02:42:20.895Z,998.53
2023-01-26T02:43:20.899Z,998.50
2023-01-26T02:44:21.368Z,998.51
2023-01-26T02:45:21.375Z,998.49
2023-01-26T02:46:20.843Z,998.47
2023-01-26T02:47:20.880Z,998.45
2023-01-26T02:48:20.802Z,998.48
2023-01-26T02:49:20.754Z,998.49
2023-01-26T02:50:20.746Z,998.48
2023-01-26T02:51:21.056Z,998.45
2023-01-26T02:52:20.773Z,998.44
2023-01-26T02:53:20.805Z,998.45
2023-01-26T02:54:21.303Z,998.47
2023-01-26T02:55:21.275Z,998.46
2023-01-26T02:56:20.697Z,998.44
2023-01-26T02:57:21.270Z,998.44
2023-01-26T02:58:20.651Z,998.42
2023-01-26T02:59:20.623Z,998.44
2023-01-26T03:00:20.892Z,998.36
2023-01-26T03:01:20.592Z,998.37
2023-01-26T03:02:21.598Z,998.38
2023-01-26T03:03:20.912Z,998.32
2023-01-26T03:04:21.419Z,998.31
2023-01-26T03:05:20.643Z,998.26
2023-01-26T03:06:20.570Z,998.24
2023-01-26T03:07:20.563Z,998.25
2023-01-26T03:08:21.254Z,998.24
2023-01-26T03:09:21.484Z,998.29
2023-01-26T03:10:20.891Z,998.30
2023-01-26T03:11:20.902Z,998.25
2023-01-26T03:12:21.354Z,998.34
2023-01-26T03:13:21.263Z,998.36
2023-01-26T03:14:20.441Z,998.38
2023-01-26T03:15:20.499Z,998.36
2023-01-26T03:16:20.616Z,998.38
2023-01-26T03:17:20.459Z,998.38
2023-01-26T03:18:20.400Z,998.36
2023-01-26T03:19:20.404Z,998.39
2023-01-26T03:20:20.840Z,998.36
2023-01-26T03:21:20.849Z,998.33
2023-01-26T03:22:20.431Z,998.35
2023-01-26T03:23:20.318Z,998.31
2023-01-26T03:24:20.382Z,998.31
2023-01-26T03:25:20.540Z,998.28
2023-01-26T03:26:20.286Z,998.29
2023-01-26T03:27:20.421Z,998.29
2023-01-26T03:28:20.259Z,998.31
2023-01-26T03:29:20.319Z,998.27
2023-01-26T03:30:21.199Z,998.27
2023-01-26T03:31:21.123Z,998.27
2023-01-26T03:32:20.972Z,998.29
2023-01-26T03:33:20.225Z,998.29
2023-01-26T03:34:20.198Z,998.30
2023-01-26T03:35:20.933Z,998.26
2023-01-26T03:36:21.107Z,998.22
2023-01-26T03:37:20.432Z,998.24
2023-01-26T03:38:20.167Z,998.23
2023-01-26T03:39:20.105Z,998.28
2023-01-26T03:40:20.723Z,998.28
2023-01-26T03:41:20.890Z,998.31
2023-01-26T03:42:20.573Z,998.32
2023-01-26T03:43:20.920Z,998.31
2023-01-26T03:44:20.094Z,998.34
2023-01-26T03:45:20.154Z,998.36
2023-01-26T03:46:20.243Z,998.31
2023-01-26T03:47:20.018Z,998.38
2023-01-26T03:48:20.037Z,998.35
2023-01-26T03:49:20.391Z,998.35
2023-01-26T03:50:20.430Z,998.35
2023-01-26T03:51:19.983Z,998.28
2023-01-26T03:52:19.969Z,998.28
2023-01-26T03:53:19.982Z,998.27
2023-01-26T03:54:20.151Z,998.23
2023-01-26T03:55:20.049Z,998.24
2023-01-26T03:56:19.943Z,998.18
2023-01-26T03:57:19.909Z,998.18
2023-01-26T03:58:20.442Z,998.17
2023-01-26T03:59:19.984Z,998.15
2023-01-26T04:00:20.492Z,998.13
2023-01-26T04:01:20.165Z,998.10
2023-01-26T04:02:19.946Z,998.07
2023-01-26T04:03:19.920Z,998.14
2023-01-26T04:04:20.710Z,998.10
2023-01-26T04:05:20.050Z,998.08
2023-01-26T04:06:20.297Z,998.04
2023-01-26T04:07:19.938Z,998.07
2023-01-26T04:08:20.430Z,998.08
2023-01-26T04:09:20.077Z,998.06
2023-01-26T04:10:19.750Z,998.02
2023-01-26T04:11:19.731Z,997.99
2023-01-26T04:12:19.712Z,998.03
2023-01-26T04:13:19.728Z,998.08
2023-01-26T04:14:19.813Z,998.08
2023-01-26T04:15:19.874Z,998.09
2023-01-26T04:16:19.909Z,998.06
2023-01-26T04:17:19.949Z,998.04
2023-01-26T04:18:19.945Z,998.04
2023-01-26T04:19:19.622Z,998.04
2023-01-26T04:20:20.127Z,997.98
2023-01-26T04:21:19.597Z,998.02
2023-01-26T04:22:19.576Z,998.00
2023-01-26T04:23:19.584Z,998.04
2023-01-26T04:24:20.279Z,997.98
2023-01-26T04:25:19.673Z,997.95
2023-01-26T04:26:20.086Z,998.01
2023-01-26T04:27:19.657Z,997.98
2023-01-26T04:28:20.026Z,997.97
2023-01-26T04:29:19.926Z,997.98
2023-01-26T04:30:20.328Z,997.95
2023-01-26T04:31:19.491Z,997.95
2023-01-26T04:32:19.445Z,997.97
2023-01-26T04:33:19.478Z,997.94
2023-01-26T04:34:19.458Z,997.89
2023-01-26T04:35:19.677Z,997.92
2023-01-26T04:36:19.971Z,997.85
2023-01-26T04:37:19.383Z,997.90
2023-01-26T04:38:19.393Z,997.84
2023-01-26T04:39:19.708Z,997.90
2023-01-26T04:40:19.414Z,997.82
2023-01-26T04:41:19.335Z,997.81
2023-01-26T04:42:19.354Z,997.84
2023-01-26T04:43:19.339Z,997.79
2023-01-26T04:44:19.491Z,997.77
2023-01-26T04:45:19.310Z,997.80
2023-01-26T04:46:19.621Z,997.80
2023-01-26T04:47:19.370Z,997.77
2023-01-26T04:48:19.749Z,997.82
2023-01-26T04:49:19.386Z,997.78
2023-01-26T04:50:19.858Z,997.81
2023-01-26T04:51:19.386Z,997.81
2023-01-26T04:52:19.940Z,997.84
2023-01-26T04:53:19.410Z,997.84
2023-01-26T04:54:19.528Z,997.86
2023-01-26T04:55:19.409Z,997.83
2023-01-26T04:56:19.762Z,997.81
2023-01-26T04:57:19.523Z,997.86
2023-01-26T04:58:19.199Z,997.82
2023-01-26T04:59:19.451Z,997.88
2023-01-26T05:00:19.963Z,997.86
2023-01-26T05:01:19.605Z,997.80
2023-01-26T05:02:19.985Z,997.82
2023-01-26T05:03:19.449Z,997.84
2023-01-26T05:04:19.521Z,997.84
2023-01-26T05:05:19.725Z,997.75
2023-01-26T05:06:19.901Z,997.78
2023-01-26T05:07:19.480Z,997.70
2023-01-26T05:08:20.877Z,997.68
2023-01-26T05:09:18.976Z,997.72
2023-01-26T05:10:18.966Z,997.66
2023-01-26T05:11:19.024Z,997.64
2023-01-26T05:12:19.112Z,997.66
2023-01-26T05:13:19.129Z,997.67
2023-01-26T05:14:18.966Z,997.63
2023-01-26T05:15:19.236Z,997.58
2023-01-26T05:16:19.386Z,997.58
2023-01-26T05:17:19.346Z,997.66
2023-01-26T05:18:19.405Z,997.59
2023-01-26T05:19:18.885Z,997.60
2023-01-26T05:20:19.029Z,997.62
2023-01-26T05:21:18.927Z,997.62
2023-01-26T05:22:18.985Z,997.59
2023-01-26T05:23:18.916Z,997.66
2023-01-26T05:24:18.819Z,997.70
2023-01-26T05:25:19.070Z,997.76
2023-01-26T05:26:19.002Z,997.73
2023-01-26T05:27:18.936Z,997.71
2023-01-26T05:28:20.035Z,997.73
2023-01-26T05:29:18.932Z,997.69
2023-01-26T05:30:19.523Z,997.76
2023-01-26T05:31:19.046Z,997.78
2023-01-26T05:32:19.168Z,997.82
2023-01-26T05:33:18.951Z,997.79
2023-01-26T05:34:19.504Z,997.83
2023-01-26T05:35:18.667Z,997.85
2023-01-26T05:36:19.460Z,997.90
2023-01-26T05:37:18.675Z,997.88
2023-01-26T05:38:19.995Z,997.83
2023-01-26T05:39:18.582Z,997.88
2023-01-26T05:40:18.622Z,997.88
2023-01-26T05:41:18.773Z,997.88
2023-01-26T05:42:18.562Z,997.95
2023-01-26T05:43:18.581Z,997.94
2023-01-26T05:44:18.588Z,997.97
2023-01-26T05:45:18.707Z,997.97
2023-01-26T05:46:18.519Z,997.97
2023-01-26T05:47:18.518Z,997.97
2023-01-26T05:48:18.525Z,997.99
2023-01-26T05:49:18.568Z,997.95
2023-01-26T05:50:18.525Z,997.97
2023-01-26T05:51:18.796Z,997.97
2023-01-26T05:52:19.320Z,997.95
2023-01-26T05:53:18.827Z,998.01
2023-01-26T05:54:19.058Z,998.01
2023-01-26T05:55:18.859Z,998.03
2023-01-26T05:56:19.181Z,998.01
2023-01-26T05:57:18.657Z,997.99
2023-01-26T05:58:18.431Z,998.06
2023-01-26T05:59:18.376Z,998.04
2023-01-26T06:00:19.369Z,998.08
2023-01-26T06:01:19.162Z,998.11
2023-01-26T06:02:19.508Z,998.12
2023-01-26T06:03:19.944Z,998.05
2023-01-26T06:04:19.649Z,998.12
2023-01-26T06:05:18.955Z,998.14
2023-01-26T06:06:18.318Z,998.15
2023-01-26T06:07:18.245Z,998.10
2023-01-26T06:08:18.278Z,998.16
2023-01-26T06:09:18.215Z,998.14
2023-01-26T06:10:18.235Z,998.16
2023-01-26T06:11:18.184Z,998.16
2023-01-26T06:12:18.284Z,998.17
2023-01-26T06:13:18.353Z,998.21
2023-01-26T06:14:18.476Z,998.21
2023-01-26T06:15:18.173Z,998.24
2023-01-26T06:16:18.541Z,998.19
2023-01-26T06:17:18.224Z,998.19
2023-01-26T06:18:18.152Z,998.19
2023-01-26T06:19:18.212Z,998.19
2023-01-26T06:20:18.583Z,998.15
2023-01-26T06:21:18.310Z,998.14
2023-01-26T06:22:18.064Z,998.15
2023-01-26T06:23:18.322Z,998.15
2023-01-26T06:24:18.164Z,998.14
2023-01-26T06:25:18.047Z,998.13
2023-01-26T06:26:18.029Z,998.10
2023-01-26T06:27:18.033Z,998.10
2023-01-26T06:28:17.995Z,998.13
2023-01-26T06:29:18.051Z,998.08
2023-01-26T06:30:18.640Z,998.14
2023-01-26T06:31:18.135Z,998.12
2023-01-26T06:32:17.980Z,998.12
2023-01-26T06:33:17.923Z,998.15
2023-01-26T06:34:18.243Z,998.13
2023-01-26T06:35:18.042Z,998.17
2023-01-26T06:36:18.571Z,998.15
2023-01-26T06:37:18.065Z,998.19
2023-01-26T06:38:18.644Z,998.19
2023-01-26T06:39:17.809Z,998.22
2023-01-26T06:40:17.861Z,998.17
2023-01-26T06:41:17.893Z,998.20
2023-01-26T06:42:17.948Z,998.20
2023-01-26T06:43:17.778Z,998.22
2023-01-26T06:44:17.855Z,998.21
2023-01-26T06:45:18.157Z,998.26
2023-01-26T06:46:18.141Z,998.21
2023-01-26T06:47:18.130Z,998.22
2023-01-26T06:48:17.646Z,998.17
2023-01-26T06:49:17.679Z,998.17
2023-01-26T06:50:18.398Z,998.10
2023-01-26T06:51:17.616Z,998.09
2023-01-26T06:52:17.603Z,998.06
2023-01-26T06:53:18.286Z,998.05
2023-01-26T06:54:18.060Z,998.07
2023-01-26T06:55:17.561Z,998.08
2023-01-26T06:56:17.567Z,998.06
2023-01-26T06:57:17.569Z,998.12
2023-01-26T06:58:17.555Z,998.13
2023-01-26T06:59:17.555Z,998.04
2023-01-26T07:00:17.646Z,998.11
2023-01-26T07:01:17.617Z,998.07
2023-01-26T07:02:17.582Z,998.04
2023-01-26T07:03:17.546Z,998.06
2023-01-26T07:04:18.083Z,998.05
2023-01-26T07:05:17.444Z,998.05
2023-01-26T07:06:17.407Z,998.05
2023-01-26T07:07:17.439Z,998.04
2023-01-26T07:08:17.814Z,998.06
2023-01-26T07:09:17.482Z,998.05
2023-01-26T07:10:17.412Z,998.04
2023-01-26T07:11:17.468Z,998.07
2023-01-26T07:12:17.406Z,998.10
2023-01-26T07:13:17.413Z,998.07
2023-01-26T07:14:17.414Z,998.07
2023-01-26T07:15:17.409Z,998.10
2023-01-26T07:16:17.428Z,998.09
2023-01-26T07:17:17.417Z,998.02
2023-01-26T07:18:17.414Z,998.07
2023-01-26T07:19:17.406Z,998.09
2023-01-26T07:20:17.418Z,998.09
2023-01-26T07:21:17.460Z,998.13
2023-01-26T07:22:17.580Z,998.14
2023-01-26T07:23:17.411Z,998.13
2023-01-26T07:24:17.474Z,998.14
2023-01-26T07:25:17.412Z,998.13
2023-01-26T07:26:17.409Z,998.16
2023-01-26T07:27:17.409Z,998.15
2023-01-26T07:28:17.417Z,998.13
2023-01-26T07:29:17.237Z,998.14
2023-01-26T07:30:17.133Z,998.14
2023-01-26T07:31:17.620Z,998.11
2023-01-26T07:32:17.384Z,998.15
2023-01-26T07:33:17.418Z,998.21
2023-01-26T07:34:17.418Z,998.19
2023-01-26T07:35:17.191Z,998.15
2023-01-26T07:36:17.407Z,998.16
2023-01-26T07:37:17.025Z,998.18
2023-01-26T07:38:17.076Z,998.18
2023-01-26T07:39:16.991Z,998.18
2023-01-26T07:40:16.986Z,998.20
2023-01-26T07:41:16.965Z,998.20
2023-01-26T07:42:16.966Z,998.21
2023-01-26T07:43:16.963Z,998.22
2023-01-26T07:44:16.999Z,998.25
2023-01-26T07:45:16.937Z,998.23
2023-01-26T07:46:17.544Z,998.25
2023-01-26T07:47:17.425Z,998.23
2023-01-26T07:48:17.014Z,998.25
2023-01-26T07:49:16.904Z,998.26
2023-01-26T07:50:17.111Z,998.27
2023-01-26T07:51:17.094Z,998.26
2023-01-26T07:52:17.113Z,998.23
2023-01-26T07:53:17.165Z,998.23
2023-01-26T07:54:17.160Z,998.21
2023-01-26T07:55:17.475Z,998.19
2023-01-26T07:56:18.217Z,998.20
2023-01-26T07:57:16.868Z,998.19
2023-01-26T07:58:17.414Z,998.25
2023-01-26T07:59:17.414Z,998.23
2023-01-26T08:00:17.414Z,998.24
2023-01-26T08:01:17.438Z,998.24
2023-01-26T08:02:17.317Z,998.22
2023-01-26T08:03:17.427Z,998.24
2023-01-26T08:04:16.723Z,998.25
2023-01-26T08:05:16.741Z,998.25
2023-01-26T08:06:16.709Z,998.23
2023-01-26T08:07:16.774Z,998.24
2023-01-26T08:08:16.841Z,998.25
2023-01-26T08:09:16.890Z,998.22
2023-01-26T08:10:16.633Z,998.28
2023-01-26T08:11:17.411Z,998.31
2023-01-26T08:12:17.041Z,998.31
2023-01-26T08:13:21.041Z,998.26
2023-01-26T08:14:17.587Z,998.29
2023-01-26T08:15:17.226Z,998.29
2023-01-26T08:16:16.628Z,998.27
2023-01-26T08:17:16.538Z,998.27
2023-01-26T08:18:17.343Z,998.27
2023-01-26T08:19:16.667Z,998.25
2023-01-26T08:20:17.130Z,998.23
2023-01-26T08:21:17.243Z,998.19
2023-01-26T08:22:16.460Z,998.22
2023-01-26T08:23:16.434Z,998.16
2023-01-26T08:24:17.290Z,998.21
2023-01-26T08:25:16.748Z,998.21
2023-01-26T08:26:16.680Z,998.24
2023-01-26T08:27:17.235Z,998.25
2023-01-26T08:28:16.388Z,998.24
2023-01-26T08:29:17.279Z,998.22
2023-01-26T08:30:16.618Z,998.26
2023-01-26T08:31:16.425Z,998.29
2023-01-26T08:32:17.204Z,998.26
2023-01-26T08:33:17.135Z,998.22
2023-01-26T08:34:16.481Z,998.21
2023-01-26T08:35:16.346Z,998.22
2023-01-26T08:36:16.410Z,998.22
2023-01-26T08:37:16.475Z,998.23
2023-01-26T08:38:16.303Z,998.22
2023-01-26T08:39:16.552Z,998.22
2023-01-26T08:40:16.626Z,998.17
2023-01-26T08:41:16.659Z,998.22
2023-01-26T08:42:16.242Z,998.21
2023-01-26T08:43:16.325Z,998.22
2023-01-26T08:44:16.844Z,998.23
2023-01-26T08:45:16.178Z,998.23
2023-01-26T08:46:16.184Z,998.21
2023-01-26T08:47:17.007Z,998.22
2023-01-26T08:48:17.089Z,998.20
2023-01-26T08:49:16.585Z,998.22
2023-01-26T08:50:16.694Z,998.18
2023-01-26T08:51:16.973Z,998.18
2023-01-26T08:52:16.863Z,998.17
2023-01-26T08:53:16.153Z,998.18
2023-01-26T08:54:16.941Z,998.21
2023-01-26T08:55:16.032Z,998.21
2023-01-26T08:56:16.033Z,998.24
2023-01-26T08:57:16.902Z,998.30
2023-01-26T08:58:16.547Z,998.31
2023-01-26T08:59:16.043Z,998.33
2023-01-26T09:00:16.138Z,998.27
2023-01-26T09:01:16.053Z,998.30
2023-01-26T09:02:16.138Z,998.30
2023-01-26T09:03:15.991Z,998.25
2023-01-26T09:04:15.952Z,998.25
2023-01-26T09:05:16.000Z,998.24
2023-01-26T09:06:15.907Z,998.26
2023-01-26T09:07:15.880Z,998.28
2023-01-26T09:08:16.269Z,998.31
2023-01-26T09:09:16.216Z,998.27
2023-01-26T09:10:15.999Z,998.30
2023-01-26T09:11:16.291Z,998.28
2023-01-26T09:12:16.140Z,998.33
2023-01-26T09:13:16.211Z,998.34
2023-01-26T09:14:16.167Z,998.26
2023-01-26T09:15:15.795Z,998.23
2023-01-26T09:16:16.051Z,998.23
2023-01-26T09:17:16.680Z,998.25
2023-01-26T09:18:15.929Z,998.26
2023-01-26T09:19:15.850Z,998.28
2023-01-26T09:20:15.898Z,998.30
2023-01-26T09:21:15.789Z,998.28
2023-01-26T09:22:15.679Z,998.31
2023-01-26T09:23:15.691Z,998.29
2023-01-26T09:24:16.255Z,998.29
2023-01-26T09:25:16.425Z,998.28
2023-01-26T09:26:17.108Z,998.31
2023-01-26T09:27:16.110Z,998.25
2023-01-26T09:28:15.705Z,998.29
2023-01-26T09:29:15.667Z,998.30
2023-01-26T09:30:17.277Z,998.31
2023-01-26T09:31:16.030Z,998.28
2023-01-26T09:32:15.685Z,998.29
2023-01-26T09:33:15.557Z,998.28
2023-01-26T09:34:15.643Z,998.31
2023-01-26T09:35:15.971Z,998.27
2023-01-26T09:36:15.681Z,998.27
2023-01-26T09:37:15.736Z,998.29
2023-01-26T09:38:15.657Z,998.30
2023-01-26T09:39:15.825Z,998.32
2023-01-26T09:40:15.895Z,998.31
2023-01-26T09:41:15.677Z,998.35
2023-01-26T09:42:16.074Z,998.32
2023-01-26T09:43:15.775Z,998.35
2023-01-26T09:44:15.454Z,998.33
2023-01-26T09:45:16.139Z,998.35
2023-01-26T09:46:16.241Z,998.27
2023-01-26T09:47:16.196Z,998.33
2023-01-26T09:48:15.598Z,998.32
2023-01-26T09:49:15.397Z,998.32
2023-01-26T09:50:15.806Z,998.37
2023-01-26T09:51:16.103Z,998.33
2023-01-26T09:52:16.247Z,998.34
2023-01-26T09:53:15.460Z,998.36
2023-01-26T09:54:16.084Z,998.35
2023-01-26T09:55:15.969Z,998.41
2023-01-26T09:56:16.102Z,998.37
2023-01-26T09:57:15.223Z,998.42
2023-01-26T09:58:15.215Z,998.41
2023-01-26T09:59:15.210Z,998.39
2023-01-26T10:00:15.909Z,998.39
2023-01-26T10:01:15.709Z,998.36
2023-01-26T10:02:16.097Z,998.40
2023-01-26T10:03:15.143Z,998.34
2023-01-26T10:04:15.220Z,998.30
2023-01-26T10:05:15.300Z,998.30
2023-01-26T10:06:15.202Z,998.18
2023-01-26T10:07:15.226Z,998.18
2023-01-26T10:08:15.089Z,998.19
2023-01-26T10:09:15.210Z,998.18
2023-01-26T10:10:15.585Z,998.20
2023-01-26T10:11:15.272Z,998.16
2023-01-26T10:12:15.670Z,998.15
2023-01-26T10:13:15.740Z,998.11
2023-01-26T10:14:15.809Z,998.10
2023-01-26T10:15:15.817Z,998.04
2023-01-26T10:16:15.737Z,998.03
2023-01-26T10:17:15.218Z,997.97
2023-01-26T10:18:15.329Z,997.99
2023-01-26T10:19:15.691Z,997.91
2023-01-26T10:20:15.541Z,997.93
2023-01-26T10:21:15.219Z,997.92
2023-01-26T10:22:15.027Z,997.90
2023-01-26T10:23:15.760Z,997.89
2023-01-26T10:24:14.985Z,997.92
2023-01-26T10:25:14.988Z,997.98
2023-01-26T10:26:14.858Z,997.97
2023-01-26T10:27:15.775Z,997.91
2023-01-26T10:28:15.598Z,997.91
2023-01-26T10:29:14.824Z,997.89
2023-01-26T10:30:15.697Z,997.94
2023-01-26T10:31:15.722Z,997.84
2023-01-26T10:32:14.785Z,997.82
2023-01-26T10:33:16.457Z,997.87
2023-01-26T10:34:14.762Z,997.84
2023-01-26T10:35:14.934Z,997.87
2023-01-26T10:36:14.815Z,997.88
2023-01-26T10:37:15.014Z,997.92
2023-01-26T10:38:14.735Z,997.91
2023-01-26T10:39:15.700Z,997.95
2023-01-26T10:40:15.207Z,997.95
2023-01-26T10:41:15.245Z,997.92
2023-01-26T10:42:15.235Z,997.90
2023-01-26T10:43:15.235Z,997.91
2023-01-26T10:44:14.729Z,997.90
2023-01-26T10:45:15.012Z,997.89
2023-01-26T10:46:14.752Z,997.89
2023-01-26T10:47:14.582Z,997.89
2023-01-26T10:48:14.740Z,997.87
2023-01-26T10:49:14.820Z,997.80
2023-01-26T10:50:14.644Z,997.81
2023-01-26T10:51:15.823Z,997.82
2023-01-26T10:52:15.339Z,997.82
2023-01-26T10:53:14.771Z,997.79
2023-01-26T10:54:15.240Z,997.76
2023-01-26T10:55:14.818Z,997.80
2023-01-26T10:56:15.210Z,997.77
2023-01-26T10:57:15.381Z,997.79
2023-01-26T10:58:14.571Z,997.78
2023-01-26T10:59:14.467Z,997.81
2023-01-26T11:00:14.751Z,997.77
2023-01-26T11:01:15.024Z,997.76
2023-01-26T11:02:14.482Z,997.76
2023-01-26T11:03:15.404Z,997.73
2023-01-26T11:04:14.619Z,997.67
2023-01-26T11:05:14.725Z,997.68
2023-01-26T11:06:14.705Z,997.69
2023-01-26T11:07:14.780Z,997.70
2023-01-26T11:08:14.763Z,997.69
2023-01-26T11:09:14.752Z,997.67
2023-01-26T11:10:14.861Z,997.66
2023-01-26T11:11:14.321Z,997.67
2023-01-26T11:12:15.990Z,997.61
2023-01-26T11:13:14.251Z,997.60
2023-01-26T11:14:14.275Z,997.60
2023-01-26T11:15:14.248Z,997.57
2023-01-26T11:16:14.396Z,997.59
2023-01-26T11:17:14.256Z,997.58
2023-01-26T11:18:14.253Z,997.53
2023-01-26T11:19:14.256Z,997.51
2023-01-26T11:20:14.254Z,997.48
2023-01-26T11:21:14.242Z,997.46
2023-01-26T11:22:14.263Z,997.46
2023-01-26T11:23:14.251Z,997.47
2023-01-26T11:24:14.293Z,997.48
2023-01-26T11:25:14.293Z,997.43
2023-01-26T11:26:14.266Z,997.43
2023-01-26T11:27:14.317Z,997.46
2023-01-26T11:28:14.245Z,997.45
2023-01-26T11:29:14.247Z,997.42
2023-01-26T11:30:14.256Z,997.44
2023-01-26T11:31:14.176Z,997.44
2023-01-26T11:32:14.088Z,997.42
2023-01-26T11:33:14.262Z,997.43
2023-01-26T11:34:14.001Z,997.42
2023-01-26T11:35:14.508Z,997.39
2023-01-26T11:36:14.247Z,997.39
2023-01-26T11:37:14.282Z,997.41
2023-01-26T11:38:14.247Z,997.41
2023-01-26T11:39:14.033Z,997.42
2023-01-26T11:40:14.334Z,997.41
2023-01-26T11:41:14.258Z,997.41
2023-01-26T11:42:14.227Z,997.39
2023-01-26T11:43:14.260Z,997.40
2023-01-26T11:44:14.069Z,997.36
2023-01-26T11:45:14.342Z,997.38
2023-01-26T11:46:14.262Z,997.36
2023-01-26T11:47:14.259Z,997.37
2023-01-26T11:48:14.250Z,997.33
2023-01-26T11:49:13.897Z,997.30
2023-01-26T11:50:14.074Z,997.33
2023-01-26T11:51:14.261Z,997.33
2023-01-26T11:52:14.207Z,997.30
2023-01-26T11:53:14.292Z,997.29
2023-01-26T11:54:14.234Z,997.30
2023-01-26T11:55:14.839Z,997.28
2023-01-26T11:56:14.234Z,997.28
2023-01-26T11:57:14.315Z,997.26
2023-01-26T11:58:14.242Z,997.29
2023-01-26T11:59:14.249Z,997.24
2023-01-26T12:00:28.663Z,997.25
2023-01-26T12:01:14.794Z,997.25
2023-01-26T12:02:13.762Z,997.23
2023-01-26T12:03:13.811Z,997.24
2023-01-26T12:04:13.815Z,997.21
2023-01-26T12:05:14.127Z,997.21
2023-01-26T12:06:13.968Z,997.19
2023-01-26T12:07:14.023Z,997.22
2023-01-26T12:08:13.773Z,997.24
2023-01-26T12:09:13.799Z,997.24
2023-01-26T12:10:13.579Z,997.24
2023-01-26T12:11:14.271Z,997.21
2023-01-26T12:12:14.251Z,997.27
2023-01-26T12:13:13.801Z,997.30
2023-01-26T12:14:14.250Z,997.30
2023-01-26T12:15:13.896Z,997.22
2023-01-26T12:16:14.229Z,997.25
2023-01-26T12:17:18.327Z,997.21
2023-01-26T12:18:14.643Z,997.24
2023-01-26T12:19:14.163Z,997.26
2023-01-26T12:20:13.396Z,997.22
2023-01-26T12:21:13.420Z,997.20
2023-01-26T12:22:14.135Z,997.19
2023-01-26T12:23:13.347Z,997.23
2023-01-26T12:24:39.277Z,997.20
2023-01-26T12:25:19.349Z,997.19
2023-01-26T12:26:14.830Z,997.20
2023-01-26T12:27:14.088Z,997.20
2023-01-26T12:28:13.573Z,997.16